sensor_id;sensor_type;location;lat;lon;timestamp;temperature;humidity
8408;DHT22;4241;48.452;9.216;2023-03-23T00:00:14;14.30;73.50
8408;DHT22;4241;48.452;9.216;2023-03-23T00:02:41;14.30;73.90
8408;DHT22;4241;48.452;9.216;2023-03-23T00:05:09;14.20;73.60
8408;DHT22;4241;48.452;9.216;2023-03-23T00:07:36;14.30;73.90
8408;DHT22;4241;48.452;9.216;2023-03-23T00:10:05;14.20;74.50
8408;DHT22;4241;48.452;9.216;2023-03-23T00:12:32;14.20;74.70
8408;DHT22;4241;48.452;9.216;2023-03-23T00:15:00;14.20;75.40
8408;DHT22;4241;48.452;9.216;2023-03-23T00:17:27;14.20;75.00
8408;DHT22;4241;48.452;9.216;2023-03-23T00:19:54;14.30;75.70
8408;DHT22;4241;48.452;9.216;2023-03-23T00:22:21;14.10;76.90
8408;DHT22;4241;48.452;9.216;2023-03-23T00:24:51;14.10;77.40
8408;DHT22;4241;48.452;9.216;2023-03-23T00:27:19;14.20;77.80
8408;DHT22;4241;48.452;9.216;2023-03-23T00:29:48;14.10;77.80
8408;DHT22;4241;48.452;9.216;2023-03-23T00:32:19;14.10;78.30
8408;DHT22;4241;48.452;9.216;2023-03-23T00:34:46;14.20;79.30
8408;DHT22;4241;48.452;9.216;2023-03-23T00:37:14;14.00;79.90
8408;DHT22;4241;48.452;9.216;2023-03-23T00:39:42;14.00;81.60
8408;DHT22;4241;48.452;9.216;2023-03-23T00:42:11;14.00;79.90
8408;DHT22;4241;48.452;9.216;2023-03-23T00:44:40;14.10;80.90
8408;DHT22;4241;48.452;9.216;2023-03-23T00:47:09;13.90;81.50
8408;DHT22;4241;48.452;9.216;2023-03-23T00:49:36;14.00;80.40
8408;DHT22;4241;48.452;9.216;2023-03-23T00:52:05;13.90;79.20
8408;DHT22;4241;48.452;9.216;2023-03-23T00:54:33;13.90;79.40
8408;DHT22;4241;48.452;9.216;2023-03-23T00:57:00;13.80;79.30
8408;DHT22;4241;48.452;9.216;2023-03-23T00:59:27;13.90;79.40
8408;DHT22;4241;48.452;9.216;2023-03-23T01:01:56;14.00;81.30
8408;DHT22;4241;48.452;9.216;2023-03-23T01:04:23;13.90;80.40
8408;DHT22;4241;48.452;9.216;2023-03-23T01:06:51;13.90;80.00
8408;DHT22;4241;48.452;9.216;2023-03-23T01:09:18;13.90;80.50
8408;DHT22;4241;48.452;9.216;2023-03-23T01:11:47;13.90;80.30
8408;DHT22;4241;48.452;9.216;2023-03-23T01:14:16;13.90;80.30
8408;DHT22;4241;48.452;9.216;2023-03-23T01:16:44;13.90;80.40
8408;DHT22;4241;48.452;9.216;2023-03-23T01:19:12;13.90;80.80
8408;DHT22;4241;48.452;9.216;2023-03-23T01:21:40;14.10;80.60
8408;DHT22;4241;48.452;9.216;2023-03-23T01:24:08;13.90;80.40
8408;DHT22;4241;48.452;9.216;2023-03-23T01:26:34;13.90;80.60
8408;DHT22;4241;48.452;9.216;2023-03-23T01:29:01;14.00;80.90
8408;DHT22;4241;48.452;9.216;2023-03-23T01:31:28;14.00;81.00
8408;DHT22;4241;48.452;9.216;2023-03-23T01:33:55;13.90;80.40
8408;DHT22;4241;48.452;9.216;2023-03-23T01:36:25;13.90;80.70
8408;DHT22;4241;48.452;9.216;2023-03-23T01:38:54;13.90;80.90
8408;DHT22;4241;48.452;9.216;2023-03-23T01:41:23;14.00;81.10
8408;DHT22;4241;48.452;9.216;2023-03-23T01:43:54;14.00;81.40
8408;DHT22;4241;48.452;9.216;2023-03-23T01:46:21;13.90;81.70
8408;DHT22;4241;48.452;9.216;2023-03-23T01:48:49;13.90;81.80
8408;DHT22;4241;48.452;9.216;2023-03-23T01:51:18;13.90;83.10
8408;DHT22;4241;48.452;9.216;2023-03-23T01:53:49;14.10;82.90
8408;DHT22;4241;48.452;9.216;2023-03-23T01:56:20;13.90;82.70
8408;DHT22;4241;48.452;9.216;2023-03-23T01:58:50;13.90;82.50
8408;DHT22;4241;48.452;9.216;2023-03-23T02:01:18;13.90;83.20
8408;DHT22;4241;48.452;9.216;2023-03-23T02:03:47;13.90;82.70
8408;DHT22;4241;48.452;9.216;2023-03-23T02:06:15;13.90;83.20
8408;DHT22;4241;48.452;9.216;2023-03-23T02:08:43;14.70;84.00
8408;DHT22;4241;48.452;9.216;2023-03-23T02:11:15;13.90;84.30
8408;DHT22;4241;48.452;9.216;2023-03-23T02:13:43;13.90;84.40
8408;DHT22;4241;48.452;9.216;2023-03-23T02:16:15;14.00;83.60
8408;DHT22;4241;48.452;9.216;2023-03-23T02:18:53;14.00;84.20
8408;DHT22;4241;48.452;9.216;2023-03-23T02:21:46;14.00;85.30
8408;DHT22;4241;48.452;9.216;2023-03-23T02:24:35;14.00;85.80
8408;DHT22;4241;48.452;9.216;2023-03-23T02:27:09;14.00;86.20
8408;DHT22;4241;48.452;9.216;2023-03-23T02:29:54;14.20;86.30
8408;DHT22;4241;48.452;9.216;2023-03-23T02:35:39;14.10;87.10
8408;DHT22;4241;48.452;9.216;2023-03-23T02:38:11;14.30;87.00
8408;DHT22;4241;48.452;9.216;2023-03-23T02:40:41;14.30;88.60
8408;DHT22;4241;48.452;9.216;2023-03-23T02:43:11;14.30;88.00
8408;DHT22;4241;48.452;9.216;2023-03-23T02:45:41;14.30;87.90
8408;DHT22;4241;48.452;9.216;2023-03-23T02:48:09;14.30;87.90
8408;DHT22;4241;48.452;9.216;2023-03-23T02:50:38;14.30;89.50
8408;DHT22;4241;48.452;9.216;2023-03-23T02:53:09;14.40;88.50
8408;DHT22;4241;48.452;9.216;2023-03-23T02:55:37;14.40;88.80
8408;DHT22;4241;48.452;9.216;2023-03-23T02:58:06;14.50;88.40
8408;DHT22;4241;48.452;9.216;2023-03-23T03:00:32;14.50;87.40
8408;DHT22;4241;48.452;9.216;2023-03-23T03:03:00;14.50;86.60
8408;DHT22;4241;48.452;9.216;2023-03-23T03:05:36;14.50;86.40
8408;DHT22;4241;48.452;9.216;2023-03-23T03:08:18;14.50;85.60
8408;DHT22;4241;48.452;9.216;2023-03-23T03:10:51;14.60;85.10
8408;DHT22;4241;48.452;9.216;2023-03-23T03:13:26;14.60;84.40
8408;DHT22;4241;48.452;9.216;2023-03-23T03:15:58;14.60;84.20
8408;DHT22;4241;48.452;9.216;2023-03-23T03:18:28;14.50;84.50
8408;DHT22;4241;48.452;9.216;2023-03-23T03:21:00;14.60;83.80
8408;DHT22;4241;48.452;9.216;2023-03-23T03:23:31;14.50;83.80
8408;DHT22;4241;48.452;9.216;2023-03-23T03:26:00;14.60;84.00
8408;DHT22;4241;48.452;9.216;2023-03-23T03:28:31;14.50;84.30
8408;DHT22;4241;48.452;9.216;2023-03-23T03:31:01;14.50;84.50
8408;DHT22;4241;48.452;9.216;2023-03-23T03:33:30;14.50;84.70
8408;DHT22;4241;48.452;9.216;2023-03-23T03:36:00;14.50;84.20
8408;DHT22;4241;48.452;9.216;2023-03-23T03:38:30;14.60;84.70
8408;DHT22;4241;48.452;9.216;2023-03-23T03:41:06;14.50;84.20
8408;DHT22;4241;48.452;9.216;2023-03-23T03:43:33;14.50;84.30
8408;DHT22;4241;48.452;9.216;2023-03-23T03:46:00;14.50;84.00
8408;DHT22;4241;48.452;9.216;2023-03-23T03:48:27;14.50;84.40
8408;DHT22;4241;48.452;9.216;2023-03-23T03:50:54;14.50;84.20
8408;DHT22;4241;48.452;9.216;2023-03-23T03:53:22;14.60;84.00
8408;DHT22;4241;48.452;9.216;2023-03-23T03:55:50;14.70;84.10
8408;DHT22;4241;48.452;9.216;2023-03-23T03:58:21;14.60;84.60
8408;DHT22;4241;48.452;9.216;2023-03-23T04:00:48;14.50;84.40
8408;DHT22;4241;48.452;9.216;2023-03-23T04:03:15;14.50;84.40
8408;DHT22;4241;48.452;9.216;2023-03-23T04:05:41;14.50;84.00
8408;DHT22;4241;48.452;9.216;2023-03-23T04:08:10;14.50;83.80
8408;DHT22;4241;48.452;9.216;2023-03-23T04:10:37;14.50;83.10
8408;DHT22;4241;48.452;9.216;2023-03-23T04:13:06;14.60;83.30
8408;DHT22;4241;48.452;9.216;2023-03-23T04:15:32;14.50;83.00
8408;DHT22;4241;48.452;9.216;2023-03-23T04:17:59;14.60;84.00
8408;DHT22;4241;48.452;9.216;2023-03-23T04:20:26;14.40;84.00
8408;DHT22;4241;48.452;9.216;2023-03-23T04:22:56;14.40;84.30
8408;DHT22;4241;48.452;9.216;2023-03-23T04:25:23;14.40;84.50
8408;DHT22;4241;48.452;9.216;2023-03-23T04:27:51;14.30;84.30
8408;DHT22;4241;48.452;9.216;2023-03-23T04:30:21;14.30;84.50
8408;DHT22;4241;48.452;9.216;2023-03-23T04:32:49;14.20;84.70
8408;DHT22;4241;48.452;9.216;2023-03-23T04:35:19;14.20;84.60
8408;DHT22;4241;48.452;9.216;2023-03-23T04:37:46;14.20;85.30
8408;DHT22;4241;48.452;9.216;2023-03-23T04:40:15;14.20;85.10
8408;DHT22;4241;48.452;9.216;2023-03-23T04:42:43;14.10;85.50
8408;DHT22;4241;48.452;9.216;2023-03-23T04:45:12;14.20;86.90
8408;DHT22;4241;48.452;9.216;2023-03-23T04:47:42;14.20;85.00
8408;DHT22;4241;48.452;9.216;2023-03-23T04:50:21;14.20;85.30
8408;DHT22;4241;48.452;9.216;2023-03-23T04:52:49;14.20;85.00
8408;DHT22;4241;48.452;9.216;2023-03-23T04:55:18;14.20;85.30
8408;DHT22;4241;48.452;9.216;2023-03-23T04:57:46;14.30;85.20
8408;DHT22;4241;48.452;9.216;2023-03-23T05:00:13;14.30;85.50
8408;DHT22;4241;48.452;9.216;2023-03-23T05:02:44;14.30;85.30
8408;DHT22;4241;48.452;9.216;2023-03-23T05:05:12;14.40;85.00
8408;DHT22;4241;48.452;9.216;2023-03-23T05:07:40;14.90;85.40
8408;DHT22;4241;48.452;9.216;2023-03-23T05:10:11;14.40;84.90
8408;DHT22;4241;48.452;9.216;2023-03-23T05:12:38;14.50;84.50
8408;DHT22;4241;48.452;9.216;2023-03-23T05:15:06;14.40;84.60
8408;DHT22;4241;48.452;9.216;2023-03-23T05:17:33;14.40;84.60
8408;DHT22;4241;48.452;9.216;2023-03-23T05:20:03;14.40;85.10
8408;DHT22;4241;48.452;9.216;2023-03-23T05:22:31;14.40;84.40
8408;DHT22;4241;48.452;9.216;2023-03-23T05:24:58;14.40;84.00
8408;DHT22;4241;48.452;9.216;2023-03-23T05:27:25;14.40;83.60
8408;DHT22;4241;48.452;9.216;2023-03-23T05:29:53;14.40;83.40
8408;DHT22;4241;48.452;9.216;2023-03-23T05:32:20;14.40;83.90
8408;DHT22;4241;48.452;9.216;2023-03-23T05:34:55;14.40;83.20
8408;DHT22;4241;48.452;9.216;2023-03-23T05:37:24;14.50;83.20
8408;DHT22;4241;48.452;9.216;2023-03-23T05:39:52;14.50;83.30
8408;DHT22;4241;48.452;9.216;2023-03-23T05:42:20;14.50;83.00
8408;DHT22;4241;48.452;9.216;2023-03-23T05:44:47;14.50;82.60
8408;DHT22;4241;48.452;9.216;2023-03-23T05:47:14;14.50;82.40
8408;DHT22;4241;48.452;9.216;2023-03-23T05:49:41;14.60;82.70
8408;DHT22;4241;48.452;9.216;2023-03-23T05:52:08;14.60;82.70
8408;DHT22;4241;48.452;9.216;2023-03-23T05:54:37;14.60;83.00
8408;DHT22;4241;48.452;9.216;2023-03-23T05:57:04;14.60;82.90
8408;DHT22;4241;48.452;9.216;2023-03-23T05:59:31;14.50;83.60
8408;DHT22;4241;48.452;9.216;2023-03-23T06:01:59;14.70;83.80
8408;DHT22;4241;48.452;9.216;2023-03-23T06:04:26;14.60;83.40
8408;DHT22;4241;48.452;9.216;2023-03-23T06:06:53;14.50;83.70
8408;DHT22;4241;48.452;9.216;2023-03-23T06:09:20;14.50;84.00
8408;DHT22;4241;48.452;9.216;2023-03-23T06:11:50;14.50;83.90
8408;DHT22;4241;48.452;9.216;2023-03-23T06:14:17;14.50;83.70
8408;DHT22;4241;48.452;9.216;2023-03-23T06:16:44;14.60;83.60
8408;DHT22;4241;48.452;9.216;2023-03-23T06:19:11;14.60;84.10
8408;DHT22;4241;48.452;9.216;2023-03-23T06:21:38;14.50;84.30
8408;DHT22;4241;48.452;9.216;2023-03-23T06:24:05;14.60;84.30
8408;DHT22;4241;48.452;9.216;2023-03-23T06:26:35;14.60;84.70
8408;DHT22;4241;48.452;9.216;2023-03-23T06:29:05;14.60;84.50
8408;DHT22;4241;48.452;9.216;2023-03-23T06:31:37;14.60;85.10
8408;DHT22;4241;48.452;9.216;2023-03-23T06:34:04;14.60;84.80
8408;DHT22;4241;48.452;9.216;2023-03-23T06:36:34;14.70;84.90
8408;DHT22;4241;48.452;9.216;2023-03-23T06:39:01;14.70;84.60
8408;DHT22;4241;48.452;9.216;2023-03-23T06:41:29;14.70;84.80
8408;DHT22;4241;48.452;9.216;2023-03-23T06:43:56;14.70;84.60
8408;DHT22;4241;48.452;9.216;2023-03-23T06:46:24;14.80;85.10
8408;DHT22;4241;48.452;9.216;2023-03-23T06:48:51;14.80;84.40
8408;DHT22;4241;48.452;9.216;2023-03-23T06:51:18;14.90;85.00
8408;DHT22;4241;48.452;9.216;2023-03-23T06:53:45;14.90;84.40
8408;DHT22;4241;48.452;9.216;2023-03-23T06:56:11;14.90;84.50
8408;DHT22;4241;48.452;9.216;2023-03-23T06:58:38;15.00;85.10
8408;DHT22;4241;48.452;9.216;2023-03-23T07:01:07;15.00;84.80
8408;DHT22;4241;48.452;9.216;2023-03-23T07:03:36;15.10;84.50
8408;DHT22;4241;48.452;9.216;2023-03-23T07:06:03;15.10;83.90
8408;DHT22;4241;48.452;9.216;2023-03-23T07:08:30;15.20;84.60
8408;DHT22;4241;48.452;9.216;2023-03-23T07:10:57;15.20;85.90
8408;DHT22;4241;48.452;9.216;2023-03-23T07:13:24;15.20;86.00
8408;DHT22;4241;48.452;9.216;2023-03-23T07:15:52;15.20;87.80
8408;DHT22;4241;48.452;9.216;2023-03-23T07:18:19;15.20;86.50
8408;DHT22;4241;48.452;9.216;2023-03-23T07:20:48;15.20;85.70
8408;DHT22;4241;48.452;9.216;2023-03-23T07:23:15;15.30;86.80
8408;DHT22;4241;48.452;9.216;2023-03-23T07:25:43;15.30;86.40
8408;DHT22;4241;48.452;9.216;2023-03-23T07:28:10;15.30;87.50
8408;DHT22;4241;48.452;9.216;2023-03-23T07:30:37;15.40;87.90
8408;DHT22;4241;48.452;9.216;2023-03-23T07:33:05;15.40;89.20
8408;DHT22;4241;48.452;9.216;2023-03-23T07:35:32;15.40;86.50
8408;DHT22;4241;48.452;9.216;2023-03-23T07:38:01;15.40;88.50
8408;DHT22;4241;48.452;9.216;2023-03-23T07:40:29;15.40;87.20
8408;DHT22;4241;48.452;9.216;2023-03-23T07:42:58;15.40;87.40
8408;DHT22;4241;48.452;9.216;2023-03-23T07:45:26;15.40;88.40
8408;DHT22;4241;48.452;9.216;2023-03-23T07:47:54;15.30;89.20
8408;DHT22;4241;48.452;9.216;2023-03-23T07:50:21;15.20;90.10
8408;DHT22;4241;48.452;9.216;2023-03-23T07:52:50;15.20;89.40
8408;DHT22;4241;48.452;9.216;2023-03-23T07:55:19;15.30;88.90
8408;DHT22;4241;48.452;9.216;2023-03-23T07:57:47;15.20;90.20
8408;DHT22;4241;48.452;9.216;2023-03-23T08:00:15;15.30;90.70
8408;DHT22;4241;48.452;9.216;2023-03-23T08:02:45;15.20;90.30
8408;DHT22;4241;48.452;9.216;2023-03-23T08:05:12;15.30;91.30
8408;DHT22;4241;48.452;9.216;2023-03-23T08:07:40;15.30;91.00
8408;DHT22;4241;48.452;9.216;2023-03-23T08:10:08;15.40;91.30
8408;DHT22;4241;48.452;9.216;2023-03-23T08:12:38;15.40;91.00
8408;DHT22;4241;48.452;9.216;2023-03-23T08:15:06;15.50;92.50
8408;DHT22;4241;48.452;9.216;2023-03-23T08:17:33;15.40;91.30
8408;DHT22;4241;48.452;9.216;2023-03-23T08:20:02;15.50;93.10
8408;DHT22;4241;48.452;9.216;2023-03-23T08:22:36;15.60;93.00
8408;DHT22;4241;48.452;9.216;2023-03-23T08:25:05;15.70;93.30
8408;DHT22;4241;48.452;9.216;2023-03-23T08:27:32;15.60;93.00
8408;DHT22;4241;48.452;9.216;2023-03-23T08:30:01;15.60;93.90
8408;DHT22;4241;48.452;9.216;2023-03-23T08:32:27;15.60;92.80
8408;DHT22;4241;48.452;9.216;2023-03-23T08:34:54;15.70;93.40
8408;DHT22;4241;48.452;9.216;2023-03-23T08:37:21;15.60;93.70
8408;DHT22;4241;48.452;9.216;2023-03-23T08:39:51;15.60;94.00
8408;DHT22;4241;48.452;9.216;2023-03-23T08:42:18;15.60;95.10
8408;DHT22;4241;48.452;9.216;2023-03-23T08:44:45;15.60;95.70
8408;DHT22;4241;48.452;9.216;2023-03-23T08:47:13;15.60;94.70
8408;DHT22;4241;48.452;9.216;2023-03-23T08:49:40;15.70;96.50
8408;DHT22;4241;48.452;9.216;2023-03-23T08:52:08;15.70;95.40
8408;DHT22;4241;48.452;9.216;2023-03-23T08:54:35;15.70;98.00
8408;DHT22;4241;48.452;9.216;2023-03-23T08:57:03;15.50;98.40
8408;DHT22;4241;48.452;9.216;2023-03-23T08:59:30;15.60;96.80
8408;DHT22;4241;48.452;9.216;2023-03-23T09:01:57;15.70;97.20
8408;DHT22;4241;48.452;9.216;2023-03-23T09:04:25;15.70;97.30
8408;DHT22;4241;48.452;9.216;2023-03-23T09:06:55;15.70;99.90
8408;DHT22;4241;48.452;9.216;2023-03-23T09:09:22;15.80;98.00
8408;DHT22;4241;48.452;9.216;2023-03-23T09:11:49;15.70;99.90
8408;DHT22;4241;48.452;9.216;2023-03-23T09:14:16;15.60;99.90
8408;DHT22;4241;48.452;9.216;2023-03-23T09:16:42;15.60;99.90
8408;DHT22;4241;48.452;9.216;2023-03-23T09:19:10;15.50;99.30
8408;DHT22;4241;48.452;9.216;2023-03-23T09:21:39;15.50;99.90
8408;DHT22;4241;48.452;9.216;2023-03-23T09:24:06;15.50;99.90
8408;DHT22;4241;48.452;9.216;2023-03-23T09:26:33;15.50;99.90
8408;DHT22;4241;48.452;9.216;2023-03-23T09:28:59;15.70;99.90
8408;DHT22;4241;48.452;9.216;2023-03-23T09:31:26;16.00;99.90
8408;DHT22;4241;48.452;9.216;2023-03-23T09:33:53;16.00;99.90
8408;DHT22;4241;48.452;9.216;2023-03-23T09:36:22;16.20;99.90
8408;DHT22;4241;48.452;9.216;2023-03-23T09:38:52;16.10;99.90
8408;DHT22;4241;48.452;9.216;2023-03-23T09:44:17;16.20;99.90
8408;DHT22;4241;48.452;9.216;2023-03-23T09:46:53;16.10;99.90
8408;DHT22;4241;48.452;9.216;2023-03-23T09:49:26;16.10;99.90
8408;DHT22;4241;48.452;9.216;2023-03-23T09:51:57;16.10;99.90
8408;DHT22;4241;48.452;9.216;2023-03-23T09:54:27;16.10;99.90
8408;DHT22;4241;48.452;9.216;2023-03-23T09:56:58;16.10;99.90
8408;DHT22;4241;48.452;9.216;2023-03-23T09:59:30;16.10;99.90
8408;DHT22;4241;48.452;9.216;2023-03-23T10:02:02;16.10;99.90
8408;DHT22;4241;48.452;9.216;2023-03-23T10:04:39;16.10;99.90
8408;DHT22;4241;48.452;9.216;2023-03-23T10:07:10;16.10;99.90
8408;DHT22;4241;48.452;9.216;2023-03-23T10:09:41;16.20;99.90
8408;DHT22;4241;48.452;9.216;2023-03-23T10:12:18;16.20;99.90
8408;DHT22;4241;48.452;9.216;2023-03-23T10:15:04;16.30;99.90
8408;DHT22;4241;48.452;9.216;2023-03-23T10:17:38;16.50;99.90
8408;DHT22;4241;48.452;9.216;2023-03-23T10:20:29;16.60;99.90
8408;DHT22;4241;48.452;9.216;2023-03-23T10:23:05;16.80;99.90
8408;DHT22;4241;48.452;9.216;2023-03-23T10:25:40;16.80;99.90
8408;DHT22;4241;48.452;9.216;2023-03-23T10:28:11;16.90;99.90
8408;DHT22;4241;48.452;9.216;2023-03-23T10:30:41;16.80;97.00
8408;DHT22;4241;48.452;9.216;2023-03-23T10:33:13;16.90;99.50
8408;DHT22;4241;48.452;9.216;2023-03-23T10:35:46;16.80;99.90
8408;DHT22;4241;48.452;9.216;2023-03-23T10:38:17;16.60;99.90
8408;DHT22;4241;48.452;9.216;2023-03-23T10:40:49;16.50;99.90
8408;DHT22;4241;48.452;9.216;2023-03-23T10:43:18;16.40;99.90
8408;DHT22;4241;48.452;9.216;2023-03-23T10:45:49;16.20;99.90
8408;DHT22;4241;48.452;9.216;2023-03-23T10:48:30;16.10;99.90
8408;DHT22;4241;48.452;9.216;2023-03-23T10:51:03;16.20;99.90
8408;DHT22;4241;48.452;9.216;2023-03-23T10:53:32;16.20;99.90
8408;DHT22;4241;48.452;9.216;2023-03-23T10:56:04;16.00;99.90
8408;DHT22;4241;48.452;9.216;2023-03-23T10:58:33;16.00;99.90
8408;DHT22;4241;48.452;9.216;2023-03-23T11:01:03;16.00;99.90
8408;DHT22;4241;48.452;9.216;2023-03-23T11:03:39;16.00;99.90
8408;DHT22;4241;48.452;9.216;2023-03-23T11:06:07;16.00;99.90
8408;DHT22;4241;48.452;9.216;2023-03-23T11:08:38;16.10;99.90
8408;DHT22;4241;48.452;9.216;2023-03-23T11:11:14;16.20;99.90
8408;DHT22;4241;48.452;9.216;2023-03-23T11:13:44;16.20;99.90
8408;DHT22;4241;48.452;9.216;2023-03-23T11:16:22;16.40;99.90
8408;DHT22;4241;48.452;9.216;2023-03-23T11:18:49;16.50;99.90
8408;DHT22;4241;48.452;9.216;2023-03-23T11:21:19;16.50;99.90
8408;DHT22;4241;48.452;9.216;2023-03-23T11:23:49;16.30;99.90
8408;DHT22;4241;48.452;9.216;2023-03-23T11:26:21;16.40;99.90
8408;DHT22;4241;48.452;9.216;2023-03-23T11:28:52;16.30;99.90
8408;DHT22;4241;48.452;9.216;2023-03-23T11:31:23;16.20;99.90
8408;DHT22;4241;48.452;9.216;2023-03-23T11:33:55;16.30;99.90
8408;DHT22;4241;48.452;9.216;2023-03-23T11:36:33;16.40;99.90
8408;DHT22;4241;48.452;9.216;2023-03-23T11:39:00;16.60;99.90
8408;DHT22;4241;48.452;9.216;2023-03-23T11:41:35;16.80;99.90
8408;DHT22;4241;48.452;9.216;2023-03-23T11:44:09;16.80;99.90
8408;DHT22;4241;48.452;9.216;2023-03-23T11:46:42;16.80;98.80
8408;DHT22;4241;48.452;9.216;2023-03-23T11:49:18;16.90;99.20
8408;DHT22;4241;48.452;9.216;2023-03-23T11:51:49;17.00;98.60
8408;DHT22;4241;48.452;9.216;2023-03-23T11:54:21;17.20;99.90
8408;DHT22;4241;48.452;9.216;2023-03-23T11:56:52;17.40;99.90
8408;DHT22;4241;48.452;9.216;2023-03-23T11:59:27;17.50;96.10
8408;DHT22;4241;48.452;9.216;2023-03-23T12:02:00;17.30;97.50
8408;DHT22;4241;48.452;9.216;2023-03-23T12:04:45;17.40;97.00
8408;DHT22;4241;48.452;9.216;2023-03-23T12:10:25;17.40;96.30
8408;DHT22;4241;48.452;9.216;2023-03-23T12:13:06;17.50;95.70
8408;DHT22;4241;48.452;9.216;2023-03-23T12:15:41;17.50;97.00
8408;DHT22;4241;48.452;9.216;2023-03-23T12:18:18;17.50;96.10
8408;DHT22;4241;48.452;9.216;2023-03-23T12:20:57;17.50;97.90
8408;DHT22;4241;48.452;9.216;2023-03-23T12:23:28;17.50;97.40
8408;DHT22;4241;48.452;9.216;2023-03-23T12:26:21;17.50;96.50
8408;DHT22;4241;48.452;9.216;2023-03-23T12:29:18;17.60;96.20
8408;DHT22;4241;48.452;9.216;2023-03-23T12:31:56;17.60;96.20
8408;DHT22;4241;48.452;9.216;2023-03-23T12:34:33;17.70;95.50
8408;DHT22;4241;48.452;9.216;2023-03-23T12:37:26;17.50;94.50
8408;DHT22;4241;48.452;9.216;2023-03-23T12:40:10;17.50;93.70
8408;DHT22;4241;48.452;9.216;2023-03-23T12:42:49;17.50;95.00
8408;DHT22;4241;48.452;9.216;2023-03-23T12:45:25;17.30;95.20
8408;DHT22;4241;48.452;9.216;2023-03-23T12:47:58;17.30;95.10
8408;DHT22;4241;48.452;9.216;2023-03-23T12:50:30;17.20;94.50
8408;DHT22;4241;48.452;9.216;2023-03-23T12:53:02;17.10;94.80
8408;DHT22;4241;48.452;9.216;2023-03-23T12:55:34;17.10;95.70
8408;DHT22;4241;48.452;9.216;2023-03-23T12:58:05;17.00;96.90
8408;DHT22;4241;48.452;9.216;2023-03-23T13:00:52;16.80;96.20
8408;DHT22;4241;48.452;9.216;2023-03-23T13:03:24;16.80;95.80
8408;DHT22;4241;48.452;9.216;2023-03-23T13:06:03;16.80;95.60
8408;DHT22;4241;48.452;9.216;2023-03-23T13:08:34;16.80;96.80
8408;DHT22;4241;48.452;9.216;2023-03-23T13:11:05;16.90;97.90
8408;DHT22;4241;48.452;9.216;2023-03-23T13:13:45;16.90;95.30
8408;DHT22;4241;48.452;9.216;2023-03-23T13:16:22;16.90;95.00
8408;DHT22;4241;48.452;9.216;2023-03-23T13:19:00;17.00;95.50
8408;DHT22;4241;48.452;9.216;2023-03-23T13:21:30;16.90;96.40
8408;DHT22;4241;48.452;9.216;2023-03-23T13:24:00;17.00;95.10
8408;DHT22;4241;48.452;9.216;2023-03-23T13:26:29;17.00;95.80
8408;DHT22;4241;48.452;9.216;2023-03-23T13:28:59;17.00;95.90
8408;DHT22;4241;48.452;9.216;2023-03-23T13:31:30;17.00;95.50
8408;DHT22;4241;48.452;9.216;2023-03-23T13:34:03;17.10;96.60
8408;DHT22;4241;48.452;9.216;2023-03-23T13:36:34;17.10;94.70
8408;DHT22;4241;48.452;9.216;2023-03-23T13:39:04;17.10;94.40
8408;DHT22;4241;48.452;9.216;2023-03-23T13:41:46;17.10;95.90
8408;DHT22;4241;48.452;9.216;2023-03-23T13:44:18;17.00;94.30
8408;DHT22;4241;48.452;9.216;2023-03-23T13:47:07;17.00;94.80
8408;DHT22;4241;48.452;9.216;2023-03-23T13:49:45;17.10;94.40
8408;DHT22;4241;48.452;9.216;2023-03-23T13:52:22;17.20;94.70
8408;DHT22;4241;48.452;9.216;2023-03-23T13:54:50;17.20;94.00
8408;DHT22;4241;48.452;9.216;2023-03-23T13:57:32;17.20;94.10
8408;DHT22;4241;48.452;9.216;2023-03-23T14:00:10;17.20;93.50
8408;DHT22;4241;48.452;9.216;2023-03-23T14:02:40;17.20;92.40
8408;DHT22;4241;48.452;9.216;2023-03-23T14:05:10;17.30;93.00
8408;DHT22;4241;48.452;9.216;2023-03-23T14:07:54;17.40;93.60
8408;DHT22;4241;48.452;9.216;2023-03-23T14:10:21;17.20;92.90
8408;DHT22;4241;48.452;9.216;2023-03-23T14:12:52;17.10;94.30
8408;DHT22;4241;48.452;9.216;2023-03-23T14:15:20;17.10;94.00
8408;DHT22;4241;48.452;9.216;2023-03-23T14:17:49;16.90;94.90
8408;DHT22;4241;48.452;9.216;2023-03-23T14:20:26;16.80;94.50
8408;DHT22;4241;48.452;9.216;2023-03-23T14:22:54;16.80;93.80
8408;DHT22;4241;48.452;9.216;2023-03-23T14:25:22;16.80;94.90
8408;DHT22;4241;48.452;9.216;2023-03-23T14:27:52;15.40;93.20
8408;DHT22;4241;48.452;9.216;2023-03-23T14:30:22;16.90;93.40
8408;DHT22;4241;48.452;9.216;2023-03-23T14:32:52;16.80;93.00
8408;DHT22;4241;48.452;9.216;2023-03-23T14:35:29;16.80;93.40
8408;DHT22;4241;48.452;9.216;2023-03-23T14:37:58;16.90;93.30
8408;DHT22;4241;48.452;9.216;2023-03-23T14:40:27;16.90;93.70
8408;DHT22;4241;48.452;9.216;2023-03-23T14:42:55;17.00;92.50
8408;DHT22;4241;48.452;9.216;2023-03-23T14:45:23;17.00;94.80
8408;DHT22;4241;48.452;9.216;2023-03-23T14:47:54;17.10;94.70
8408;DHT22;4241;48.452;9.216;2023-03-23T14:50:26;17.10;95.30
8408;DHT22;4241;48.452;9.216;2023-03-23T14:52:57;17.20;95.00
8408;DHT22;4241;48.452;9.216;2023-03-23T14:55:24;17.20;93.90
8408;DHT22;4241;48.452;9.216;2023-03-23T14:57:54;17.10;94.80
8408;DHT22;4241;48.452;9.216;2023-03-23T15:00:22;17.10;94.50
8408;DHT22;4241;48.452;9.216;2023-03-23T15:02:53;17.00;95.20
8408;DHT22;4241;48.452;9.216;2023-03-23T15:05:26;16.90;94.80
8408;DHT22;4241;48.452;9.216;2023-03-23T15:07:56;16.80;94.50
8408;DHT22;4241;48.452;9.216;2023-03-23T15:10:25;16.80;94.70
8408;DHT22;4241;48.452;9.216;2023-03-23T15:12:52;16.80;96.10
8408;DHT22;4241;48.452;9.216;2023-03-23T15:15:26;16.70;95.30
8408;DHT22;4241;48.452;9.216;2023-03-23T15:17:55;16.70;95.30
8408;DHT22;4241;48.452;9.216;2023-03-23T15:20:24;16.70;96.70
8408;DHT22;4241;48.452;9.216;2023-03-23T15:22:51;16.70;97.50
8408;DHT22;4241;48.452;9.216;2023-03-23T15:25:20;16.70;98.90
8408;DHT22;4241;48.452;9.216;2023-03-23T15:27:52;16.70;96.60
8408;DHT22;4241;48.452;9.216;2023-03-23T15:30:37;16.70;96.90
8408;DHT22;4241;48.452;9.216;2023-03-23T15:33:10;16.60;97.10
8408;DHT22;4241;48.452;9.216;2023-03-23T15:35:39;16.60;98.00
8408;DHT22;4241;48.452;9.216;2023-03-23T15:38:16;16.60;98.80
8408;DHT22;4241;48.452;9.216;2023-03-23T15:40:44;16.50;98.40
8408;DHT22;4241;48.452;9.216;2023-03-23T15:43:16;16.50;98.20
8408;DHT22;4241;48.452;9.216;2023-03-23T15:45:55;16.50;98.10
8408;DHT22;4241;48.452;9.216;2023-03-23T15:48:27;16.40;98.80
8408;DHT22;4241;48.452;9.216;2023-03-23T15:50:54;16.40;99.90
8408;DHT22;4241;48.452;9.216;2023-03-23T15:53:29;16.30;98.80
8408;DHT22;4241;48.452;9.216;2023-03-23T15:55:59;16.20;98.60
8408;DHT22;4241;48.452;9.216;2023-03-23T15:58:27;16.20;99.70
8408;DHT22;4241;48.452;9.216;2023-03-23T16:00:55;16.10;99.10
8408;DHT22;4241;48.452;9.216;2023-03-23T16:03:23;16.10;99.30
8408;DHT22;4241;48.452;9.216;2023-03-23T16:05:54;16.10;99.90
8408;DHT22;4241;48.452;9.216;2023-03-23T16:08:22;16.00;99.90
8408;DHT22;4241;48.452;9.216;2023-03-23T16:10:49;15.90;99.90
8408;DHT22;4241;48.452;9.216;2023-03-23T16:13:16;15.80;99.90
8408;DHT22;4241;48.452;9.216;2023-03-23T16:15:43;15.80;99.90
8408;DHT22;4241;48.452;9.216;2023-03-23T16:18:16;15.80;99.90
8408;DHT22;4241;48.452;9.216;2023-03-23T16:20:43;15.80;99.90
8408;DHT22;4241;48.452;9.216;2023-03-23T16:23:11;15.80;99.90
8408;DHT22;4241;48.452;9.216;2023-03-23T16:25:38;15.90;99.90
8408;DHT22;4241;48.452;9.216;2023-03-23T16:28:07;16.00;99.50
8408;DHT22;4241;48.452;9.216;2023-03-23T16:30:35;14.50;99.00